Terminal Aerodrome Forecast
Issued by NWS

Home | Current Version | Previous Version | Text Only | Print | Product List | Glossary On
Versions: 1 2 3 4 5 6 7 8 9 10 11 12
000
FTUS42 TJSJ 272341
TAFJPS
TAF
TJPS 272341Z 2800/2824 13010G15KT P6SM FEW030
     FM280100 05005KT P6SM FEW025
     FM281430 13010G15KT P6SM FEW030 SCT060
     FM282330 05005KT P6SM FEW025
      AMD NOT SKED TIL 280300=

USA.gov is the U.S. government's official web portal to all federal, state and local government web resources and services.